Time;durP1;ratioP1;P1;durP2;ratioP2;P2;SDS_P1;SDS_P2;PMS_P1;PMS_P2;Temp;Humidity;BMP_temperature;BMP_pressure;BME280_temperature;BME280_humidity;BME280_pressure;Samples;Min_cycle;Max_cycle;Signal;HPM_P1;HPM_P2
2023/09/25 00:00:34;;;;;;;1.60;1.30;;;;;;;;;;5041580;28;20437;-80
2023/09/25 00:03:01;;;;;;;2.00;1.30;;;;;;;;;;5058964;28;20396;-80
2023/09/25 00:05:28;;;;;;;2.38;1.38;;;;;;;;;;5058546;28;20867;-80
2023/09/25 00:07:54;;;;;;;1.50;1.30;;;;;;;;;;5059023;28;20423;-80
2023/09/25 00:10:21;;;;;;;1.38;1.20;;;;;;;;;;5062921;28;20376;-81
2023/09/25 00:12:47;;;;;;;1.55;1.13;;;;;;;;;;5064066;28;20385;-81
2023/09/25 00:15:13;;;;;;;1.80;1.38;;;;;;;;;;5057551;28;20460;-80
2023/09/25 00:17:43;;;;;;;2.00;1.40;;;;;;;;;;5059283;28;20385;-81
2023/09/25 00:20:14;;;;;;;1.50;1.40;;;;;;;;;;5058977;28;20417;-81
2023/09/25 00:22:40;;;;;;;1.50;1.40;;;;;;;;;;5058517;28;20795;-81
2023/09/25 00:25:07;;;;;;;1.90;1.30;;;;;;;;;;5057773;28;20716;-81
2023/09/25 00:27:33;;;;;;;1.77;1.43;;;;;;;;;;5058332;28;20770;-80
2023/09/25 00:30:00;;;;;;;1.60;1.30;;;;;;;;;;5056503;28;20385;-81
2023/09/25 00:32:26;;;;;;;2.20;1.40;;;;;;;;;;5057406;28;20377;-80
2023/09/25 00:34:52;;;;;;;1.92;1.20;;;;;;;;;;5057673;28;20969;-80
2023/09/25 00:37:19;;;;;;;1.80;1.40;;;;;;;;;;5058585;28;20381;-80
2023/09/25 00:39:46;;;;;;;2.05;1.60;;;;;;;;;;5056760;28;20389;-81
2023/09/25 00:42:12;;;;;;;2.10;1.40;;;;;;;;;;5057099;28;20858;-81
2023/09/25 00:44:38;;;;;;;1.80;1.40;;;;;;;;;;5057348;28;20431;-80
2023/09/25 00:47:05;;;;;;;1.50;1.30;;;;;;;;;;5060028;28;20393;-80
2023/09/25 00:49:31;;;;;;;2.25;1.27;;;;;;;;;;5058387;28;20476;-81
2023/09/25 00:51:58;;;;;;;2.38;1.42;;;;;;;;;;5057354;28;20787;-80
2023/09/25 00:54:24;;;;;;;2.45;1.33;;;;;;;;;;5056734;28;20385;-79
2023/09/25 00:56:51;;;;;;;2.60;1.50;;;;;;;;;;5058238;28;20392;-79
2023/09/25 00:59:18;;;;;;;2.10;1.60;;;;;;;;;;5057647;28;20827;-79
2023/09/25 01:01:44;;;;;;;2.03;1.38;;;;;;;;;;5057525;28;20473;-79
2023/09/25 01:04:10;;;;;;;1.70;1.20;;;;;;;;;;5057743;28;20851;-82
2023/09/25 01:06:36;;;;;;;1.48;1.20;;;;;;;;;;5057544;28;20397;-81
2023/09/25 01:09:04;;;;;;;1.58;1.40;;;;;;;;;;5058961;28;20417;-81
2023/09/25 01:11:30;;;;;;;1.70;1.40;;;;;;;;;;5043213;28;20755;-81
2023/09/25 01:13:56;;;;;;;2.97;1.57;;;;;;;;;;5063045;28;20390;-81
2023/09/25 01:16:22;;;;;;;1.48;1.30;;;;;;;;;;5059929;28;20447;-81
2023/09/25 01:18:48;;;;;;;1.80;1.30;;;;;;;;;;5060186;28;20380;-81
2023/09/25 01:21:14;;;;;;;1.73;1.35;;;;;;;;;;5060518;28;20511;-79
2023/09/25 01:23:40;;;;;;;2.03;1.30;;;;;;;;;;5060404;28;20400;-81
2023/09/25 01:26:06;;;;;;;1.75;1.25;;;;;;;;;;5061293;28;20540;-79
2023/09/25 01:28:32;;;;;;;1.90;1.27;;;;;;;;;;5060800;28;20477;-79
2023/09/25 01:30:58;;;;;;;2.33;1.50;;;;;;;;;;5061035;28;20377;-82
2023/09/25 01:33:26;;;;;;;3.75;1.60;;;;;;;;;;5060615;28;20381;-82
2023/09/25 01:35:52;;;;;;;1.95;1.42;;;;;;;;;;5060832;28;20550;-80
2023/09/25 01:38:18;;;;;;;1.90;1.40;;;;;;;;;;5060970;28;20377;-81
2023/09/25 01:40:44;;;;;;;1.73;1.40;;;;;;;;;;5060008;28;20409;-81
2023/09/25 01:43:10;;;;;;;1.60;1.50;;;;;;;;;;5065779;28;20399;-81
2023/09/25 01:45:36;;;;;;;1.30;1.17;;;;;;;;;;5058207;28;20401;-82
2023/09/25 01:48:02;;;;;;;1.77;1.30;;;;;;;;;;5029957;28;20428;-81
2023/09/25 01:50:29;;;;;;;1.52;1.40;;;;;;;;;;5055138;28;20385;-81
2023/09/25 01:53:00;;;;;;;2.65;1.60;;;;;;;;;;5057453;28;20428;-81
2023/09/25 01:55:35;;;;;;;1.77;1.40;;;;;;;;;;5059131;28;20388;-81
2023/09/25 01:58:01;;;;;;;1.48;1.33;;;;;;;;;;5056128;28;20388;-81
2023/09/25 02:00:27;;;;;;;1.88;1.50;;;;;;;;;;5059742;28;20409;-81
2023/09/25 02:02:53;;;;;;;2.15;1.38;;;;;;;;;;5065527;28;20469;-81
2023/09/25 02:05:19;;;;;;;1.77;1.30;;;;;;;;;;5055930;28;20386;-81
2023/09/25 02:07:45;;;;;;;2.03;1.30;;;;;;;;;;5071068;28;20489;-81
2023/09/25 02:10:12;;;;;;;1.83;1.35;;;;;;;;;;5060110;28;20407;-82
2023/09/25 02:12:38;;;;;;;1.42;1.30;;;;;;;;;;5060983;28;20443;-81
2023/09/25 02:15:05;;;;;;;2.38;1.27;;;;;;;;;;5059764;28;20821;-82
2023/09/25 02:17:32;;;;;;;2.40;1.35;;;;;;;;;;5060367;28;20396;-81
2023/09/25 02:20:12;;;;;;;1.58;1.23;;;;;;;;;;5059898;28;20436;-82
2023/09/25 02:22:39;;;;;;;2.20;1.20;;;;;;;;;;5060917;28;20393;-81
2023/09/25 02:25:05;;;;;;;1.30;1.20;;;;;;;;;;5060094;28;20382;-81
2023/09/25 02:27:31;;;;;;;1.25;1.15;;;;;;;;;;5061004;28;20389;-81
2023/09/25 02:29:57;;;;;;;2.67;1.40;;;;;;;;;;5060410;28;20764;-81
2023/09/25 02:32:23;;;;;;;2.75;1.20;;;;;;;;;;5059356;28;20447;-81
2023/09/25 02:34:49;;;;;;;1.70;1.23;;;;;;;;;;5059879;28;20411;-81
2023/09/25 02:37:15;;;;;;;1.55;1.40;;;;;;;;;;5058764;28;20871;-81
2023/09/25 02:39:41;;;;;;;1.35;1.17;;;;;;;;;;5061548;28;20393;-81
2023/09/25 02:42:07;;;;;;;1.30;1.10;;;;;;;;;;5059524;28;20467;-81
2023/09/25 02:44:33;;;;;;;1.92;1.20;;;;;;;;;;5059412;28;20382;-81
2023/09/25 02:46:59;;;;;;;2.20;1.25;;;;;;;;;;5059471;28;20462;-81
2023/09/25 02:49:25;;;;;;;1.90;1.43;;;;;;;;;;5059026;28;20434;-81
2023/09/25 02:51:51;;;;;;;1.80;1.58;;;;;;;;;;5059251;28;20382;-81
2023/09/25 02:54:17;;;;;;;2.40;1.30;;;;;;;;;;5058569;28;20739;-81
2023/09/25 02:56:43;;;;;;;1.35;1.25;;;;;;;;;;5059671;28;20382;-81
2023/09/25 02:59:09;;;;;;;2.27;1.40;;;;;;;;;;5058932;28;20401;-81
2023/09/25 03:01:35;;;;;;;2.60;1.30;;;;;;;;;;5059346;28;20770;-81
2023/09/25 03:04:01;;;;;;;2.15;1.95;;;;;;;;;;5057468;28;20373;-81
2023/09/25 03:06:27;;;;;;;2.25;1.70;;;;;;;;;;5059060;28;20443;-81
2023/09/25 03:08:53;;;;;;;1.97;1.50;;;;;;;;;;5058553;28;20382;-81
2023/09/25 03:11:19;;;;;;;1.85;1.55;;;;;;;;;;5058525;28;20850;-81
2023/09/25 03:13:45;;;;;;;3.90;1.70;;;;;;;;;;5062650;28;20400;-81
2023/09/25 03:16:14;;;;;;;4.22;1.65;;;;;;;;;;5058967;28;20381;-81
2023/09/25 03:18:40;;;;;;;2.00;1.40;;;;;;;;;;5045318;28;20443;-81
2023/09/25 03:21:14;;;;;;;1.58;1.48;;;;;;;;;;5058343;28;20425;-81
2023/09/25 03:23:41;;;;;;;2.08;1.88;;;;;;;;;;5058253;28;20392;-81
2023/09/25 03:26:17;;;;;;;2.05;1.73;;;;;;;;;;5058546;28;20381;-81
2023/09/25 03:28:43;;;;;;;2.35;1.90;;;;;;;;;;5058568;28;20390;-81
2023/09/25 03:31:10;;;;;;;1.95;1.60;;;;;;;;;;5057881;28;20420;-81
2023/09/25 03:33:36;;;;;;;2.60;1.97;;;;;;;;;;5058892;28;20468;-81
2023/09/25 03:36:03;;;;;;;2.20;1.85;;;;;;;;;;5059202;28;20389;-81
2023/09/25 03:38:29;;;;;;;3.40;1.75;;;;;;;;;;5058458;28;20386;-81
2023/09/25 03:40:55;;;;;;;2.40;1.30;;;;;;;;;;5060313;28;20499;-81
2023/09/25 03:43:21;;;;;;;2.65;1.80;;;;;;;;;;5058729;28;20390;-81
2023/09/25 03:45:48;;;;;;;1.97;1.60;;;;;;;;;;5058803;28;20856;-81
2023/09/25 03:48:14;;;;;;;2.85;1.77;;;;;;;;;;5059981;28;20386;-81
2023/09/25 03:50:40;;;;;;;2.43;1.60;;;;;;;;;;5058883;28;20381;-82
2023/09/25 03:53:06;;;;;;;2.33;1.70;;;;;;;;;;5059097;28;20748;-81
2023/09/25 03:55:32;;;;;;;2.55;1.95;;;;;;;;;;5059257;28;20378;-81
2023/09/25 03:57:58;;;;;;;2.70;1.70;;;;;;;;;;5058939;28;20381;-81
2023/09/25 04:00:26;;;;;;;2.10;1.90;;;;;;;;;;5060181;28;20512;-81
2023/09/25 04:02:53;;;;;;;2.35;1.75;;;;;;;;;;5058841;28;20381;-81
2023/09/25 04:05:19;;;;;;;2.17;1.90;;;;;;;;;;5058917;28;20953;-81
2023/09/25 04:07:45;;;;;;;1.92;1.60;;;;;;;;;;5057851;28;20717;-81
2023/09/25 04:10:11;;;;;;;2.63;1.90;;;;;;;;;;5055949;28;20386;-81
2023/09/25 04:12:37;;;;;;;1.92;1.73;;;;;;;;;;5058154;28;20396;-81
2023/09/25 04:15:14;;;;;;;3.35;1.90;;;;;;;;;;5058202;28;20373;-81
2023/09/25 04:17:43;;;;;;;2.30;1.80;;;;;;;;;;5058218;28;20390;-81
2023/09/25 04:20:26;;;;;;;2.95;1.70;;;;;;;;;;5057533;28;20411;-82
2023/09/25 04:22:53;;;;;;;2.00;1.80;;;;;;;;;;5057520;28;20393;-81
2023/09/25 04:25:19;;;;;;;2.42;2.22;;;;;;;;;;5057225;28;20386;-81
2023/09/25 04:27:50;;;;;;;2.05;1.73;;;;;;;;;;5057576;28;20778;-81
2023/09/25 04:30:17;;;;;;;2.42;2.08;;;;;;;;;;5057411;28;20373;-81
2023/09/25 04:32:44;;;;;;;2.10;1.85;;;;;;;;;;5058031;28;20381;-81
2023/09/25 04:35:12;;;;;;;2.45;1.80;;;;;;;;;;5057498;28;20814;-81
2023/09/25 04:37:38;;;;;;;2.25;1.90;;;;;;;;;;5060441;28;20392;-81
2023/09/25 04:40:13;;;;;;;3.00;1.90;;;;;;;;;;5057505;28;20416;-81
2023/09/25 04:42:40;;;;;;;2.50;2.10;;;;;;;;;;5057447;28;20389;-81
2023/09/25 04:45:11;;;;;;;2.75;2.22;;;;;;;;;;5057060;28;20396;-81
2023/09/25 04:47:37;;;;;;;2.22;1.80;;;;;;;;;;5057123;28;20451;-81
2023/09/25 04:50:05;;;;;;;2.22;2.03;;;;;;;;;;5057214;28;20389;-81
2023/09/25 04:52:31;;;;;;;2.63;1.98;;;;;;;;;;5056995;28;20393;-81
2023/09/25 04:54:57;;;;;;;3.35;2.30;;;;;;;;;;5056466;28;20382;-81
2023/09/25 04:57:24;;;;;;;2.72;2.10;;;;;;;;;;5056465;28;20404;-81
2023/09/25 04:59:50;;;;;;;3.45;1.80;;;;;;;;;;5057190;28;20392;-81
2023/09/25 05:02:15;;;;;;;1.98;1.55;;;;;;;;;;5057079;28;20389;-80
2023/09/25 05:04:42;;;;;;;1.70;1.60;;;;;;;;;;5061058;28;20834;-81
2023/09/25 05:07:08;;;;;;;1.95;1.75;;;;;;;;;;5061666;28;20845;-81
2023/09/25 05:09:36;;;;;;;2.83;1.83;;;;;;;;;;5056815;28;20762;-81
2023/09/25 05:12:02;;;;;;;2.33;1.80;;;;;;;;;;5056389;28;20400;-81
2023/09/25 05:14:29;;;;;;;2.78;1.90;;;;;;;;;;5056402;28;20382;-81
2023/09/25 05:16:56;;;;;;;1.92;1.73;;;;;;;;;;5057298;28;20765;-81
2023/09/25 05:19:22;;;;;;;2.67;2.10;;;;;;;;;;5056277;28;20882;-81
2023/09/25 05:21:48;;;;;;;3.47;2.33;;;;;;;;;;5058109;28;20416;-81
2023/09/25 05:24:15;;;;;;;2.67;2.30;;;;;;;;;;5056836;28;20382;-82
2023/09/25 05:26:41;;;;;;;3.42;2.10;;;;;;;;;;5057833;28;20390;-81
2023/09/25 05:29:07;;;;;;;2.10;1.90;;;;;;;;;;5058041;28;20438;-81
2023/09/25 05:31:33;;;;;;;2.33;1.98;;;;;;;;;;5057198;28;20421;-81
2023/09/25 05:33:59;;;;;;;2.65;2.15;;;;;;;;;;5057072;28;20388;-81
2023/09/25 05:36:25;;;;;;;2.60;2.40;;;;;;;;;;5057104;28;20473;-81
2023/09/25 05:38:55;;;;;;;3.17;2.10;;;;;;;;;;5056680;28;20839;-81
2023/09/25 05:41:21;;;;;;;3.00;2.08;;;;;;;;;;5057397;28;20419;-81
2023/09/25 05:43:47;;;;;;;3.63;2.28;;;;;;;;;;5056369;28;20393;-81
2023/09/25 05:46:13;;;;;;;3.60;1.90;;;;;;;;;;5056247;28;20377;-81
2023/09/25 05:48:39;;;;;;;2.10;1.90;;;;;;;;;;5060354;28;20935;-81
2023/09/25 05:51:05;;;;;;;2.78;2.28;;;;;;;;;;5057224;28;20404;-81
2023/09/25 05:53:31;;;;;;;3.47;1.93;;;;;;;;;;5056349;28;20377;-81
2023/09/25 05:55:58;;;;;;;4.13;2.08;;;;;;;;;;5059984;28;20385;-81
2023/09/25 05:58:24;;;;;;;2.80;2.00;;;;;;;;;;5042593;28;20935;-81
2023/09/25 06:00:50;;;;;;;2.90;2.30;;;;;;;;;;5059863;28;20500;-81
2023/09/25 06:03:16;;;;;;;3.13;2.10;;;;;;;;;;5061796;28;20395;-81
2023/09/25 06:05:43;;;;;;;5.18;2.10;;;;;;;;;;5060139;28;20373;-81
2023/09/25 06:08:09;;;;;;;1.95;1.75;;;;;;;;;;5074203;28;20440;-81
2023/09/25 06:10:34;;;;;;;2.42;1.80;;;;;;;;;;5060181;28;20774;-80
2023/09/25 06:13:01;;;;;;;2.10;1.90;;;;;;;;;;5058646;28;20405;-81
2023/09/25 06:15:31;;;;;;;2.05;1.85;;;;;;;;;;5059930;28;20385;-81
2023/09/25 06:17:59;;;;;;;2.00;1.80;;;;;;;;;;5059647;28;20407;-80
2023/09/25 06:20:26;;;;;;;4.82;1.90;;;;;;;;;;5072168;28;20901;-81
2023/09/25 06:22:52;;;;;;;4.20;2.05;;;;;;;;;;5059521;28;20797;-81
2023/09/25 06:25:18;;;;;;;3.20;2.10;;;;;;;;;;5058943;28;20480;-81
2023/09/25 06:27:44;;;;;;;2.03;1.83;;;;;;;;;;5059299;28;20393;-81
2023/09/25 06:30:11;;;;;;;3.53;1.90;;;;;;;;;;5059222;28;20388;-80
2023/09/25 06:32:37;;;;;;;2.38;1.90;;;;;;;;;;5058415;28;20386;-81
2023/09/25 06:35:04;;;;;;;2.22;1.80;;;;;;;;;;5060013;28;20382;-81
2023/09/25 06:37:30;;;;;;;3.20;1.88;;;;;;;;;;5060373;28;20394;-81
2023/09/25 06:39:56;;;;;;;2.85;1.77;;;;;;;;;;5059101;28;21003;-81
2023/09/25 06:42:22;;;;;;;2.15;1.52;;;;;;;;;;5072094;28;20431;-80
2023/09/25 06:44:48;;;;;;;1.63;1.53;;;;;;;;;;5059950;28;20386;-80
2023/09/25 06:47:15;;;;;;;1.70;1.58;;;;;;;;;;5058963;28;20877;-81
2023/09/25 06:49:41;;;;;;;2.75;1.60;;;;;;;;;;5058051;28;20484;-81
2023/09/25 06:52:07;;;;;;;1.88;1.77;;;;;;;;;;5058918;28;20746;-81
2023/09/25 06:54:33;;;;;;;2.10;1.88;;;;;;;;;;5057363;28;20472;-81
2023/09/25 06:56:59;;;;;;;2.55;2.00;;;;;;;;;;5058070;28;20442;-81
2023/09/25 06:59:26;;;;;;;3.13;1.92;;;;;;;;;;5058568;28;20409;-81
2023/09/25 07:01:52;;;;;;;2.90;1.88;;;;;;;;;;5058595;28;20413;-81
2023/09/25 07:04:19;;;;;;;1.92;1.70;;;;;;;;;;5060114;28;20382;-81
2023/09/25 07:06:45;;;;;;;2.63;2.40;;;;;;;;;;5058286;28;20407;-81
2023/09/25 07:09:14;;;;;;;2.17;1.98;;;;;;;;;;5057590;28;20747;-81
2023/09/25 07:11:40;;;;;;;2.30;2.00;;;;;;;;;;5057080;28;20389;-81
2023/09/25 07:14:06;;;;;;;2.38;2.17;;;;;;;;;;5057412;28;20461;-81
2023/09/25 07:16:32;;;;;;;2.28;2.08;;;;;;;;;;5057147;28;20401;-81
2023/09/25 07:18:59;;;;;;;2.38;2.10;;;;;;;;;;5058766;28;20431;-81
2023/09/25 07:21:26;;;;;;;2.40;2.20;;;;;;;;;;5058248;28;20424;-81
2023/09/25 07:23:54;;;;;;;2.60;2.13;;;;;;;;;;5057720;28;20759;-81
2023/09/25 07:26:20;;;;;;;2.33;1.98;;;;;;;;;;5057726;28;20416;-81
2023/09/25 07:28:49;;;;;;;2.50;2.30;;;;;;;;;;5057369;28;20378;-81
2023/09/25 07:31:18;;;;;;;2.28;2.08;;;;;;;;;;5057626;28;20393;-81
2023/09/25 07:33:44;;;;;;;2.20;2.00;;;;;;;;;;5057264;28;20383;-81
2023/09/25 07:36:10;;;;;;;2.20;1.90;;;;;;;;;;5056721;28;20468;-81
2023/09/25 07:38:36;;;;;;;2.67;2.42;;;;;;;;;;5057525;28;20388;-81
2023/09/25 07:41:03;;;;;;;2.13;1.85;;;;;;;;;;5056185;28;20409;-81
2023/09/25 07:43:29;;;;;;;2.83;2.50;;;;;;;;;;5056057;28;20465;-81
2023/09/25 07:45:55;;;;;;;2.55;2.30;;;;;;;;;;5056967;28;20486;-81
2023/09/25 07:48:21;;;;;;;3.40;2.65;;;;;;;;;;5058204;28;20720;-81
2023/09/25 07:50:47;;;;;;;2.22;2.03;;;;;;;;;;5059644;28;20374;-81
2023/09/25 07:53:14;;;;;;;2.28;2.08;;;;;;;;;;5056888;28;20902;-81
2023/09/25 07:55:41;;;;;;;4.28;2.30;;;;;;;;;;5057591;28;20386;-81
2023/09/25 07:58:07;;;;;;;2.78;1.98;;;;;;;;;;5058825;28;20421;-82
2023/09/25 08:00:44;;;;;;;2.13;1.88;;;;;;;;;;5053014;28;20410;-82
2023/09/25 08:03:14;;;;;;;3.30;1.98;;;;;;;;;;5056840;28;20399;-82
2023/09/25 08:05:40;;;;;;;3.07;2.17;;;;;;;;;;5056941;28;20417;-81
2023/09/25 08:08:06;;;;;;;2.17;1.88;;;;;;;;;;5055539;28;20454;-82
2023/09/25 08:10:33;;;;;;;2.42;1.95;;;;;;;;;;5055185;28;20415;-81
2023/09/25 08:12:59;;;;;;;2.20;2.00;;;;;;;;;;5055798;28;20384;-82
2023/09/25 08:15:27;;;;;;;2.10;1.80;;;;;;;;;;5055761;28;20874;-81
2023/09/25 08:17:53;;;;;;;2.43;2.10;;;;;;;;;;5055132;28;20431;-82
2023/09/25 08:20:22;;;;;;;3.15;2.03;;;;;;;;;;5055247;28;20421;-82
2023/09/25 08:22:49;;;;;;;2.47;2.13;;;;;;;;;;5055230;28;20385;-81
2023/09/25 08:25:15;;;;;;;2.28;1.90;;;;;;;;;;5055380;28;20845;-82
2023/09/25 08:27:41;;;;;;;1.90;1.70;;;;;;;;;;5056783;28;20373;-82
2023/09/25 08:30:08;;;;;;;3.30;1.85;;;;;;;;;;5055380;28;20416;-82
2023/09/25 08:32:34;;;;;;;2.67;1.85;;;;;;;;;;5056005;28;20754;-81
2023/09/25 08:35:00;;;;;;;2.13;1.60;;;;;;;;;;5059001;28;20591;-82
2023/09/25 08:37:26;;;;;;;2.60;2.10;;;;;;;;;;5054370;28;20472;-81
2023/09/25 08:39:52;;;;;;;2.33;1.80;;;;;;;;;;5054986;28;20405;-81
2023/09/25 08:42:22;;;;;;;2.60;1.40;;;;;;;;;;5057087;28;20385;-79
2023/09/25 08:44:51;;;;;;;3.90;1.90;;;;;;;;;;5055941;28;20419;-81
2023/09/25 08:47:19;;;;;;;2.28;1.58;;;;;;;;;;5057048;28;20466;-81
2023/09/25 08:49:47;;;;;;;3.60;1.70;;;;;;;;;;5057268;28;20373;-81
2023/09/25 08:52:13;;;;;;;2.58;1.77;;;;;;;;;;5056542;28;20420;-81
2023/09/25 08:54:39;;;;;;;2.75;1.65;;;;;;;;;;5057254;28;20373;-81
2023/09/25 08:57:05;;;;;;;1.90;1.70;;;;;;;;;;5056846;28;20389;-81
2023/09/25 08:59:32;;;;;;;2.20;1.80;;;;;;;;;;5056455;28;20378;-80
2023/09/25 09:01:58;;;;;;;2.37;1.70;;;;;;;;;;5057122;28;20406;-81
2023/09/25 09:04:24;;;;;;;4.28;2.20;;;;;;;;;;5056669;28;20385;-81
2023/09/25 09:06:50;;;;;;;2.33;2.00;;;;;;;;;;5058647;28;20418;-81
2023/09/25 09:09:17;;;;;;;3.92;2.15;;;;;;;;;;5063457;28;20409;-81
2023/09/25 09:11:52;;;;;;;4.00;2.80;;;;;;;;;;5056699;28;20477;-81
2023/09/25 09:14:35;;;;;;;3.17;2.70;;;;;;;;;;5056069;28;20457;-81
2023/09/25 09:17:04;;;;;;;3.80;3.20;;;;;;;;;;5043246;28;20477;-81
2023/09/25 09:19:35;;;;;;;4.18;2.97;;;;;;;;;;5055957;28;20472;-81
2023/09/25 09:22:05;;;;;;;5.25;3.53;;;;;;;;;;5056066;28;20763;-81
2023/09/25 09:24:37;;;;;;;4.15;3.20;;;;;;;;;;5056248;28;20388;-81
2023/09/25 09:27:09;;;;;;;4.40;3.40;;;;;;;;;;5056138;28;20401;-81
2023/09/25 09:29:36;;;;;;;4.25;2.90;;;;;;;;;;5057424;28;20392;-81
2023/09/25 09:32:02;;;;;;;4.32;3.30;;;;;;;;;;5060263;28;20413;-81
2023/09/25 09:34:28;;;;;;;3.93;2.70;;;;;;;;;;5062954;28;20388;-81
2023/09/25 09:36:57;;;;;;;5.97;3.10;;;;;;;;;;5061696;28;20472;-82
2023/09/25 09:39:26;;;;;;;3.42;2.65;;;;;;;;;;5062447;28;20879;-81
2023/09/25 09:41:56;;;;;;;3.67;3.33;;;;;;;;;;5061944;28;20433;-82
2023/09/25 09:44:22;;;;;;;4.57;3.10;;;;;;;;;;5061010;28;20497;-81
2023/09/25 09:46:52;;;;;;;4.85;3.00;;;;;;;;;;5060705;28;20393;-81
2023/09/25 09:49:22;;;;;;;4.57;3.38;;;;;;;;;;5030436;28;20385;-81
2023/09/25 09:51:53;;;;;;;4.78;2.92;;;;;;;;;;5043268;28;20386;-81
2023/09/25 09:54:23;;;;;;;3.60;3.13;;;;;;;;;;5043095;28;20500;-81
2023/09/25 09:56:49;;;;;;;4.85;3.28;;;;;;;;;;5076354;28;20443;-81
2023/09/25 09:59:16;;;;;;;7.53;5.03;;;;;;;;;;5061724;28;20405;-81
2023/09/25 10:01:47;;;;;;;3.78;1.92;;;;;;;;;;5059754;28;20491;-81
2023/09/25 10:04:14;;;;;;;2.65;2.10;;;;;;;;;;5059806;28;20416;-82
2023/09/25 10:06:47;;;;;;;12.35;7.75;;;;;;;;;;5060669;28;20382;-81
2023/09/25 10:09:15;;;;;;;4.43;3.33;;;;;;;;;;5059962;28;20492;-81
2023/09/25 10:11:42;;;;;;;4.00;2.95;;;;;;;;;;5060858;28;20424;-81
2023/09/25 10:14:08;;;;;;;5.90;4.70;;;;;;;;;;5059171;28;20393;-81
2023/09/25 10:16:53;;;;;;;9.57;7.38;;;;;;;;;;5059553;28;20382;-81
2023/09/25 10:19:20;;;;;;;9.40;7.07;;;;;;;;;;5060005;28;20788;-81
2023/09/25 10:22:05;;;;;;;9.82;7.22;;;;;;;;;;5059410;28;20440;-81
2023/09/25 10:24:32;;;;;;;8.82;6.50;;;;;;;;;;5060160;28;20393;-82
2023/09/25 10:26:58;;;;;;;8.27;5.93;;;;;;;;;;5059681;28;20381;-81
2023/09/25 10:29:24;;;;;;;9.32;6.20;;;;;;;;;;5059754;28;20378;-81
2023/09/25 10:31:50;;;;;;;11.17;6.80;;;;;;;;;;5059061;28;20424;-82
2023/09/25 10:34:16;;;;;;;11.52;7.18;;;;;;;;;;5059987;28;20377;-81
2023/09/25 10:36:43;;;;;;;8.52;5.32;;;;;;;;;;5062837;28;20420;-81
2023/09/25 10:39:13;;;;;;;9.07;5.43;;;;;;;;;;5072413;28;20393;-82
2023/09/25 10:41:39;;;;;;;6.82;4.70;;;;;;;;;;5060331;28;20493;-81
2023/09/25 10:44:06;;;;;;;5.13;4.10;;;;;;;;;;5060420;28;20466;-81
2023/09/25 10:46:32;;;;;;;6.55;4.72;;;;;;;;;;5059277;28;20389;-81
2023/09/25 10:48:58;;;;;;;7.25;4.57;;;;;;;;;;5041277;28;20384;-82
2023/09/25 10:51:24;;;;;;;7.93;6.10;;;;;;;;;;5060171;28;20472;-82
2023/09/25 10:53:50;;;;;;;9.20;7.17;;;;;;;;;;5060215;28;20377;-82
2023/09/25 10:56:16;;;;;;;8.82;6.50;;;;;;;;;;5059851;28;20420;-82
2023/09/25 10:58:44;;;;;;;8.93;6.57;;;;;;;;;;5062530;28;20871;-82
2023/09/25 11:01:09;;;;;;;13.10;7.20;;;;;;;;;;5061572;28;20421;-82
2023/09/25 11:03:37;;;;;;;12.00;8.43;;;;;;;;;;5042939;28;20382;-82
2023/09/25 11:06:03;;;;;;;11.43;8.25;;;;;;;;;;5060923;28;20383;-82
2023/09/25 11:08:34;;;;;;;12.02;8.38;;;;;;;;;;5060455;28;20390;-82
2023/09/25 11:11:00;;;;;;;15.60;8.80;;;;;;;;;;5060696;28;20468;-82
2023/09/25 11:13:26;;;;;;;12.90;7.70;;;;;;;;;;5061633;28;20422;-80
2023/09/25 11:15:52;;;;;;;7.03;5.68;;;;;;;;;;5060392;28;20416;-82
2023/09/25 11:18:19;;;;;;;12.07;7.13;;;;;;;;;;5061090;28;20863;-82
2023/09/25 11:20:45;;;;;;;7.85;5.93;;;;;;;;;;5061231;28;20424;-82
2023/09/25 11:23:14;;;;;;;7.57;5.70;;;;;;;;;;5061626;28;20401;-82
2023/09/25 11:25:41;;;;;;;8.70;5.90;;;;;;;;;;5060822;28;20747;-83
2023/09/25 11:28:07;;;;;;;9.13;6.63;;;;;;;;;;5061097;28;20393;-82
2023/09/25 11:30:34;;;;;;;10.00;6.70;;;;;;;;;;5059054;28;20390;-82
2023/09/25 11:33:07;;;;;;;8.95;6.53;;;;;;;;;;5060929;28;20412;-82
2023/09/25 11:35:37;;;;;;;10.00;6.97;;;;;;;;;;5060734;28;20515;-82
2023/09/25 11:38:04;;;;;;;11.35;7.60;;;;;;;;;;5060388;28;20961;-82
2023/09/25 11:40:31;;;;;;;9.65;6.68;;;;;;;;;;5060098;28;20788;-82
2023/09/25 11:42:57;;;;;;;9.30;6.95;;;;;;;;;;5060700;28;20420;-82
2023/09/25 11:45:23;;;;;;;10.93;7.25;;;;;;;;;;5061210;28;20385;-80
2023/09/25 11:47:50;;;;;;;10.85;7.13;;;;;;;;;;5060753;28;20388;-82
2023/09/25 11:50:17;;;;;;;10.20;7.32;;;;;;;;;;5060984;28;20784;-82
2023/09/25 11:52:44;;;;;;;10.93;7.97;;;;;;;;;;5064377;28;20431;-81
2023/09/25 11:55:14;;;;;;;8.63;6.65;;;;;;;;;;5060288;28;20385;-80
2023/09/25 11:57:41;;;;;;;8.40;6.03;;;;;;;;;;5061865;28;20406;-80
2023/09/25 12:00:11;;;;;;;4.33;3.40;;;;;;;;;;5060293;28;20918;-80
2023/09/25 12:02:37;;;;;;;5.03;3.58;;;;;;;;;;5060500;28;20420;-80
2023/09/25 12:05:07;;;;;;;4.10;3.13;;;;;;;;;;5060753;28;20454;-82
2023/09/25 12:07:36;;;;;;;2.92;1.73;;;;;;;;;;5061456;28;20377;-80
2023/09/25 12:10:03;;;;;;;3.00;2.20;;;;;;;;;;5059668;28;20386;-80
2023/09/25 12:12:29;;;;;;;4.03;2.88;;;;;;;;;;5061554;28;20459;-80
2023/09/25 12:14:58;;;;;;;3.08;2.55;;;;;;;;;;5059584;28;20390;-80
2023/09/25 12:17:25;;;;;;;3.05;2.17;;;;;;;;;;5060200;28;20385;-80
2023/09/25 12:19:51;;;;;;;1.35;1.00;;;;;;;;;;5060766;28;20468;-80
2023/09/25 12:22:17;;;;;;;4.10;2.25;;;;;;;;;;5059803;28;20420;-81
2023/09/25 12:24:44;;;;;;;5.93;3.37;;;;;;;;;;5059434;28;20389;-80
2023/09/25 12:27:10;;;;;;;5.57;3.70;;;;;;;;;;5059737;28;20472;-80
2023/09/25 12:29:36;;;;;;;6.45;3.58;;;;;;;;;;5059428;28;20377;-82
2023/09/25 12:32:02;;;;;;;5.32;3.80;;;;;;;;;;5058633;28;20401;-82
2023/09/25 12:34:29;;;;;;;6.03;3.50;;;;;;;;;;5059137;28;20443;-81
2023/09/25 12:36:55;;;;;;;6.55;3.60;;;;;;;;;;5059665;28;20731;-80
2023/09/25 12:39:21;;;;;;;5.43;3.20;;;;;;;;;;5058449;28;20443;-83
2023/09/25 12:41:47;;;;;;;4.57;3.10;;;;;;;;;;5058753;28;20417;-83
2023/09/25 12:44:14;;;;;;;4.97;3.08;;;;;;;;;;5061251;28;20377;-80
2023/09/25 12:46:40;;;;;;;4.43;2.97;;;;;;;;;;5058976;28;20392;-80
2023/09/25 12:49:09;;;;;;;3.87;2.70;;;;;;;;;;5055564;28;20443;-83
2023/09/25 12:51:35;;;;;;;3.95;2.35;;;;;;;;;;5056085;28;20381;-82
2023/09/25 12:54:05;;;;;;;3.90;2.40;;;;;;;;;;5057241;28;20416;-82
2023/09/25 12:56:32;;;;;;;6.97;2.15;;;;;;;;;;5058959;28;20408;-83
2023/09/25 12:58:58;;;;;;;4.43;2.40;;;;;;;;;;5059089;28;20385;-83
2023/09/25 13:01:24;;;;;;;3.65;2.10;;;;;;;;;;5059054;28;20448;-83
2023/09/25 13:03:51;;;;;;;3.67;1.98;;;;;;;;;;5060994;28;20374;-83
2023/09/25 13:06:17;;;;;;;3.83;2.08;;;;;;;;;;5063326;28;20428;-80
2023/09/25 13:08:43;;;;;;;3.47;1.90;;;;;;;;;;5064604;28;20472;-80
2023/09/25 13:11:09;;;;;;;2.00;1.60;;;;;;;;;;5063694;28;20467;-82
2023/09/25 13:13:36;;;;;;;2.67;2.00;;;;;;;;;;5063284;28;21313;-80
2023/09/25 13:16:02;;;;;;;3.20;2.22;;;;;;;;;;5045178;28;20382;-80
2023/09/25 13:18:28;;;;;;;7.85;5.30;;;;;;;;;;5063611;28;20385;-80
2023/09/25 13:20:55;;;;;;;5.97;4.63;;;;;;;;;;5063137;28;20474;-80
2023/09/25 13:23:21;;;;;;;5.37;3.00;;;;;;;;;;5066272;28;20397;-82
2023/09/25 13:25:48;;;;;;;5.78;3.63;;;;;;;;;;5062867;28;20384;-82
2023/09/25 13:28:14;;;;;;;3.00;1.60;;;;;;;;;;5063259;28;20460;-80
2023/09/25 13:30:40;;;;;;;2.63;1.70;;;;;;;;;;5063201;28;20389;-83
2023/09/25 13:33:06;;;;;;;2.47;1.52;;;;;;;;;;5063333;28;20412;-80
2023/09/25 13:35:32;;;;;;;2.10;1.40;;;;;;;;;;5062877;28;20389;-83
2023/09/25 13:37:58;;;;;;;3.03;1.67;;;;;;;;;;5062893;28;20389;-82
2023/09/25 13:40:26;;;;;;;2.97;2.27;;;;;;;;;;5062640;28;20412;-83
2023/09/25 13:42:52;;;;;;;5.60;2.38;;;;;;;;;;5062158;28;20393;-80
2023/09/25 13:45:18;;;;;;;3.70;1.95;;;;;;;;;;5061833;28;20743;-82
2023/09/25 13:47:44;;;;;;;2.50;2.08;;;;;;;;;;5050525;28;20489;-83
2023/09/25 13:50:14;;;;;;;2.92;1.60;;;;;;;;;;5061891;28;20842;-82
2023/09/25 13:52:40;;;;;;;2.00;1.50;;;;;;;;;;5053976;28;20464;-83
2023/09/25 13:55:08;;;;;;;3.47;1.38;;;;;;;;;;5067979;28;20393;-80
2023/09/25 13:57:34;;;;;;;3.22;1.42;;;;;;;;;;5064110;28;20373;-80
2023/09/25 14:00:00;;;;;;;1.88;1.30;;;;;;;;;;5062640;28;20468;-80
2023/09/25 14:02:26;;;;;;;2.22;1.60;;;;;;;;;;5063017;28;20393;-80
2023/09/25 14:04:52;;;;;;;1.60;1.30;;;;;;;;;;5063750;28;20378;-80
2023/09/25 14:07:20;;;;;;;2.00;1.10;;;;;;;;;;5062650;28;20388;-80
2023/09/25 14:09:46;;;;;;;2.63;1.20;;;;;;;;;;5062079;28;20443;-80
2023/09/25 14:12:12;;;;;;;3.30;1.70;;;;;;;;;;5062742;28;20389;-81
2023/09/25 14:14:42;;;;;;;2.17;1.50;;;;;;;;;;5061879;28;20393;-81
2023/09/25 14:17:08;;;;;;;2.38;1.27;;;;;;;;;;5062723;28;20388;-80
2023/09/25 14:19:34;;;;;;;2.17;1.30;;;;;;;;;;5062713;28;20416;-80
2023/09/25 14:22:00;;;;;;;2.00;1.35;;;;;;;;;;5062597;28;20496;-80
2023/09/25 14:24:26;;;;;;;5.10;3.47;;;;;;;;;;5062136;28;20940;-80
2023/09/25 14:26:56;;;;;;;4.25;3.50;;;;;;;;;;5043667;28;20396;-80
2023/09/25 14:29:22;;;;;;;2.00;1.40;;;;;;;;;;5065684;28;20416;-81
2023/09/25 14:31:48;;;;;;;2.95;1.50;;;;;;;;;;5062804;28;20389;-80
2023/09/25 14:34:14;;;;;;;1.40;1.00;;;;;;;;;;5061526;28;20449;-80
2023/09/25 14:36:40;;;;;;;2.58;1.27;;;;;;;;;;5062205;28;20934;-79
2023/09/25 14:39:06;;;;;;;2.00;1.10;;;;;;;;;;5062230;28;20390;-81
2023/09/25 14:41:32;;;;;;;2.50;0.90;;;;;;;;;;5061193;28;20393;-80